createdAt,value
2019-03-05T00:00:40.129Z,96863.87
2019-03-05T00:05:45.436Z,96857.12
2019-03-05T00:10:50.591Z,96870.11
2019-03-05T00:15:56.323Z,96872.45
2019-03-05T00:21:02.563Z,96872.19
2019-03-05T00:26:08.160Z,96867.98
2019-03-05T00:31:27.504Z,96873.28
2019-03-05T00:36:36.654Z,96864.99
2019-03-05T00:42:20.006Z,96873.94
2019-03-05T00:48:04.450Z,96844.38
2019-03-05T00:53:44.542Z,96867.33
2019-03-05T00:59:30.868Z,96863.77
2019-03-05T01:05:17.100Z,96874.83
2019-03-05T01:10:23.273Z,96882.86
2019-03-05T01:15:29.935Z,96897.36
2019-03-05T01:20:35.087Z,96898.80
2019-03-05T01:25:40.546Z,96908.67
2019-03-05T01:31:07.792Z,96901.20
2019-03-05T01:36:17.510Z,96902.42
2019-03-05T01:41:22.661Z,96895.48
2019-03-05T01:46:27.888Z,96882.48
2019-03-05T01:51:33.445Z,96899.63
2019-03-05T01:56:38.621Z,96903.69
2019-03-05T02:01:43.862Z,96908.84
2019-03-05T02:06:49.721Z,96892.72
2019-03-05T02:11:54.873Z,96897.61
2019-03-05T02:17:00.030Z,96901.89
2019-03-05T02:22:06.441Z,96910.17
2019-03-05T02:27:46.616Z,96918.23
2019-03-05T02:33:02.518Z,96912.61
2019-03-05T02:38:42.389Z,96911.56
2019-03-05T02:44:03.399Z,96919.45
2019-03-05T02:49:52.559Z,96917.86
2019-03-05T02:55:37.099Z,96924.86
2019-03-05T03:01:08.328Z,96923.73
2019-03-05T03:06:19.793Z,96926.06
2019-03-05T03:11:26.129Z,96931.81
2019-03-05T03:16:31.299Z,96937.65
2019-03-05T03:21:36.459Z,96927.88
2019-03-05T03:26:41.622Z,96932.64
2019-03-05T03:31:47.178Z,96946.05
2019-03-05T03:36:54.007Z,96941.48
2019-03-05T03:42:00.112Z,96960.42
2019-03-05T03:47:05.630Z,96958.88
2019-03-05T03:52:10.786Z,96957.98
2019-03-05T03:57:15.953Z,96979.47
2019-03-05T04:02:21.120Z,96965.83
2019-03-05T04:07:26.726Z,96963.54
2019-03-05T04:12:32.557Z,96974.03
2019-03-05T04:17:37.615Z,96982.26
2019-03-05T04:22:42.743Z,96973.38
2019-03-05T04:27:48.051Z,96972.45
2019-03-05T04:32:53.478Z,96980.11
2019-03-05T04:37:58.605Z,96969.97
2019-03-05T04:43:03.813Z,96981.48
2019-03-05T04:48:09.014Z,96970.33
2019-03-05T04:53:14.496Z,96961.61
2019-03-05T04:58:20.304Z,96976.89
2019-03-05T05:03:25.433Z,96968.31
2019-03-05T05:08:30.571Z,96964.26
2019-03-05T05:13:35.731Z,96964.98
2019-03-05T05:18:41.196Z,96982.35
2019-03-05T05:23:46.788Z,96983.06
2019-03-05T05:28:52.162Z,96995.97
2019-03-05T05:33:57.218Z,97008.78
2019-03-05T05:39:02.755Z,97011.69
2019-03-05T05:44:09.424Z,97011.52
2019-03-05T05:49:14.472Z,97016.44
2019-03-05T05:54:19.902Z,97023.73
2019-03-05T05:59:24.986Z,97026.25
2019-03-05T06:04:30.227Z,97036.22
2019-03-05T06:09:35.626Z,97033.79
2019-03-05T06:14:40.691Z,97035.49
2019-03-05T06:19:46.561Z,97043.23
2019-03-05T06:24:51.547Z,97032.48
2019-03-05T06:29:56.683Z,97021.42
2019-03-05T06:35:01.662Z,97031.89
2019-03-05T06:40:09.520Z,97046.52
2019-03-05T06:45:16.560Z,97053.46
2019-03-05T06:50:22.794Z,97053.56
2019-03-05T06:55:28.493Z,97055.88
2019-03-05T07:00:37.913Z,97055.26
2019-03-05T07:06:18.842Z,97067.05
2019-03-05T07:12:02.229Z,97072.09
2019-03-05T07:17:36.057Z,97071.12
2019-03-05T07:23:22.175Z,97080.58
2019-03-05T07:28:27.549Z,97094.94
2019-03-05T07:33:32.688Z,97066.94
2019-03-05T07:38:37.770Z,97062.81
2019-03-05T07:43:43.191Z,97075.41
2019-03-05T07:48:48.254Z,97103.44
2019-03-05T07:53:53.646Z,97089.31
2019-03-05T07:58:58.728Z,97088.84
2019-03-05T08:04:04.442Z,97086.92
2019-03-05T08:09:34.560Z,97085.07
2019-03-05T08:14:54.779Z,97091.58
2019-03-05T08:20:00.512Z,97087.87
2019-03-05T08:25:08.661Z,97088.24
2019-03-05T08:30:15.173Z,97087.96
2019-03-05T08:35:20.701Z,97128.42
2019-03-05T08:40:25.934Z,97122.83
2019-03-05T08:45:31.230Z,97107.70
2019-03-05T08:50:36.504Z,97120.36
2019-03-05T08:55:41.592Z,97102.01
2019-03-05T09:00:48.114Z,97114.64
2019-03-05T09:05:53.448Z,97137.11
2019-03-05T09:10:59.164Z,97124.00
2019-03-05T09:16:06.347Z,97128.34
2019-03-05T09:21:12.480Z,97134.05
2019-03-05T09:26:18.661Z,97174.01
2019-03-05T09:31:23.814Z,97164.41
2019-03-05T09:36:30.143Z,97186.66
2019-03-05T09:41:35.188Z,97181.66
2019-03-05T09:46:40.332Z,97156.95
2019-03-05T09:51:45.884Z,97151.53
2019-03-05T09:56:51.052Z,97168.79
2019-03-05T10:01:56.880Z,97162.01
2019-03-05T10:07:03.530Z,97175.54
2019-03-05T10:12:08.931Z,97149.70
2019-03-05T10:17:14.320Z,97172.51
2019-03-05T10:22:19.851Z,97176.52
2019-03-05T10:27:24.985Z,97180.87
2019-03-05T10:32:30.496Z,97188.13
2019-03-05T10:37:35.912Z,97182.14
2019-03-05T10:42:41.354Z,97177.66
2019-03-05T10:47:47.605Z,97191.91
2019-03-05T10:52:52.757Z,97198.65
2019-03-05T10:57:58.470Z,97208.07
2019-03-05T11:03:04.318Z,97216.89
2019-03-05T11:08:13.015Z,97222.47
2019-03-05T11:13:18.142Z,97242.63
2019-03-05T11:18:29.271Z,97238.90
2019-03-05T11:23:30.109Z,97240.82
2019-03-05T11:28:35.180Z,97268.59
2019-03-05T11:33:40.607Z,97252.13
2019-03-05T11:38:46.138Z,97263.13
2019-03-05T11:43:52.519Z,97257.36
2019-03-05T11:48:57.972Z,97258.67
2019-03-05T11:54:03.024Z,97249.48
2019-03-05T11:59:08.177Z,97260.50
2019-03-05T12:04:13.661Z,97246.78
2019-03-05T12:09:19.141Z,97240.22
2019-03-05T12:14:24.634Z,97244.76
2019-03-05T12:19:29.773Z,97242.59
2019-03-05T12:24:34.824Z,97222.47
2019-03-05T12:29:40.212Z,97224.94
2019-03-05T12:34:45.593Z,97217.34
2019-03-05T12:39:50.716Z,97222.73
2019-03-05T12:44:57.181Z,97202.55
2019-03-05T12:50:03.398Z,97218.53
2019-03-05T12:55:09.232Z,97226.06
2019-03-05T13:00:18.129Z,97235.82
2019-03-05T13:05:23.371Z,97246.94
2019-03-05T13:10:34.868Z,97247.91
2019-03-05T13:15:35.538Z,97250.35
2019-03-05T13:20:40.947Z,97240.78
2019-03-05T13:25:46.080Z,97247.82
2019-03-05T13:30:51.247Z,97251.78
2019-03-05T13:35:56.344Z,97247.98
2019-03-05T13:41:01.479Z,97250.08
2019-03-05T13:46:08.426Z,97253.31
2019-03-05T13:51:50.707Z,97263.90
2019-03-05T13:57:51.413Z,97256.50
2019-03-05T14:03:07.967Z,97267.90
2019-03-05T14:08:33.815Z,97276.50
2019-03-05T14:13:38.874Z,97279.12
2019-03-05T14:18:44.030Z,97287.37
2019-03-05T14:23:50.166Z,97290.45
2019-03-05T14:28:55.306Z,97294.13
2019-03-05T14:34:00.420Z,97291.58
2019-03-05T14:39:25.819Z,97306.12
2019-03-05T14:44:39.334Z,97309.81
2019-03-05T14:49:38.611Z,97320.00
2019-03-05T14:54:44.588Z,97322.06
2019-03-05T14:59:50.574Z,97361.92
2019-03-05T15:04:56.040Z,97347.00
2019-03-05T15:10:06.032Z,97346.01
2019-03-05T15:15:15.032Z,97361.63
2019-03-05T15:20:20.559Z,97348.16
2019-03-05T15:25:25.723Z,97350.09
2019-03-05T15:30:31.221Z,97360.28
2019-03-05T15:35:36.213Z,97364.68
2019-03-05T15:40:41.828Z,97355.75
2019-03-05T15:45:47.075Z,97368.12
2019-03-05T15:50:52.125Z,97379.14
2019-03-05T15:55:57.632Z,97368.28
2019-03-05T16:01:02.841Z,97390.73
2019-03-05T16:06:08.151Z,97386.72
2019-03-05T16:11:13.349Z,97394.38
2019-03-05T16:16:19.403Z,97397.56
2019-03-05T16:21:24.685Z,97404.83
2019-03-05T16:26:29.735Z,97425.78
2019-03-05T16:31:56.878Z,97436.59
2019-03-05T16:37:39.186Z,97451.48
2019-03-05T16:42:49.024Z,97445.13
2019-03-05T16:48:02.272Z,97466.96
2019-03-05T16:53:21.453Z,97465.41
2019-03-05T16:58:54.044Z,97476.03
2019-03-05T17:04:20.600Z,97480.89
2019-03-05T17:09:37.746Z,97489.36
2019-03-05T17:14:43.364Z,97503.83
2019-03-05T17:19:49.699Z,97527.64
2019-03-05T17:24:56.308Z,97531.02
2019-03-05T17:30:02.145Z,97539.95
2019-03-05T17:35:08.817Z,97549.38
2019-03-05T17:40:16.258Z,97556.29
2019-03-05T17:45:22.517Z,97566.46
2019-03-05T17:50:28.242Z,97581.34
2019-03-05T17:55:33.405Z,97594.35
2019-03-05T18:00:40.657Z,97603.33
2019-03-05T18:05:46.538Z,97604.34
2019-03-05T18:10:51.597Z,97620.55
2019-03-05T18:15:58.245Z,97637.85
2019-03-05T18:21:03.692Z,97649.01
2019-03-05T18:26:09.959Z,97654.41
2019-03-05T18:31:15.647Z,97663.63
2019-03-05T18:36:21.246Z,97674.77
2019-03-05T18:41:28.016Z,97680.55
2019-03-05T18:46:33.081Z,97689.69
2019-03-05T18:51:41.356Z,97689.72
2019-03-05T18:56:47.663Z,97696.64
2019-03-05T19:01:52.718Z,97708.14
2019-03-05T19:06:59.263Z,97719.84
2019-03-05T19:12:04.594Z,97720.95
2019-03-05T19:17:09.729Z,97728.08
2019-03-05T19:22:15.023Z,97727.26
2019-03-05T19:27:26.083Z,97741.58
2019-03-05T19:32:27.623Z,97735.84
2019-03-05T19:37:33.049Z,97736.34
2019-03-05T19:42:38.442Z,97741.17
2019-03-05T19:47:44.020Z,97748.85
2019-03-05T19:52:49.517Z,97750.69
2019-03-05T19:58:08.386Z,97766.53
2019-03-05T20:03:13.906Z,97775.17
2019-03-05T20:08:19.110Z,97787.83
2019-03-05T20:13:24.224Z,97793.73
2019-03-05T20:18:29.278Z,97803.12
2019-03-05T20:23:35.050Z,97816.38
2019-03-05T20:28:40.689Z,97817.75
2019-03-05T20:33:45.747Z,97816.67
2019-03-05T20:38:51.026Z,97816.67
2019-03-05T20:43:56.153Z,97821.92
2019-03-05T20:49:02.097Z,97820.27
2019-03-05T20:54:07.541Z,97836.37
2019-03-05T20:59:13.523Z,97845.91
2019-03-05T21:04:19.429Z,97844.44
2019-03-05T21:09:25.452Z,97843.98
2019-03-05T21:14:30.500Z,97854.80
2019-03-05T21:19:35.560Z,97868.91
2019-03-05T21:24:41.023Z,97872.47
2019-03-05T21:29:46.089Z,97878.70
2019-03-05T21:34:51.508Z,97884.10
2019-03-05T21:39:56.953Z,97904.15
2019-03-05T21:45:04.002Z,97898.31
2019-03-05T21:50:11.824Z,97912.89
2019-03-05T21:55:17.311Z,97905.74
2019-03-05T22:00:24.689Z,97910.45
2019-03-05T22:05:30.371Z,97922.22
2019-03-05T22:10:35.503Z,97919.78
2019-03-05T22:15:41.594Z,97939.20
2019-03-05T22:20:46.721Z,97933.20
2019-03-05T22:25:51.789Z,97950.00
2019-03-05T22:30:57.128Z,97951.97
2019-03-05T22:36:02.193Z,97948.37
2019-03-05T22:41:07.390Z,97952.45
2019-03-05T22:46:12.928Z,97958.02
2019-03-05T22:51:18.384Z,97957.20
2019-03-05T22:56:24.895Z,97963.24
2019-03-05T23:01:38.816Z,97963.24
2019-03-05T23:06:44.317Z,97967.81
2019-03-05T23:11:50.454Z,97973.34
2019-03-05T23:16:55.584Z,97986.22
2019-03-05T23:22:00.959Z,97989.66
2019-03-05T23:27:07.896Z,97983.11
2019-03-05T23:32:13.517Z,97988.73
2019-03-05T23:37:19.752Z,97998.40
2019-03-05T23:42:26.757Z,97989.75
2019-03-05T23:47:31.885Z,97991.09
2019-03-05T23:52:37.052Z,97987.49
2019-03-05T23:57:42.685Z,98000.41
